Ashley, OH (43003)

3:43 AM EST on March 06, 2015 (GMT -0500)
Delaware Lake | Change Station
CLOSE
Current Station
Personal Weather Station
Location: Delaware, OH
Elevation: 932 ft
Nearby Weather Stations

Elev 932 ft 40.37 °N, 83.03 °W | Updated 1 minute ago

Partly Cloudy
Partly Cloudy
-5.3 °F
Feels Like -5 °F
N
0.0
Wind Variable Wind from SSE

Today
High -- | Low -- °F
--% Chance of Precip.
Yesterday
High -- | Low -- °F
Precip. -- in
6:58 AM 6:28 PM
Full, 100% visible
Pressure 30.51 in
Visibility 10.0 miles
Clouds Mostly Cloudy 11000 ft
Windchill -5 °F
Dew Point -8 °F
Humidity 88%
Rainfall in
Snow Depth Not available.
UV 0 out of 12
Pollen .60 out of 12
Air Quality Not available.
Flu Activity Not available.
METAR KDLZ 060848Z AUTO 00000KT 10SM BKN110 M16/M18 A3051 RMK AO2

More Conditions Fewer Conditions

Pressure 30.51 in
Visibility 10.0 miles
Clouds Mostly Cloudy 11000 ft
Windchill -5 °F
Dew Point -8 °F
Humidity 88%
Rainfall in
Snow Depth Not available.
UV 0 out of 12
Pollen .60 out of 12
Air Quality Not available.
Flu Activity Not available.
METAR KDLZ 060848Z AUTO 00000KT 10SM BKN110 M16/M18 A3051 RMK AO2

More Conditions Fewer Conditions

10-Day Weather Forecast

Almanac

Astronomy

Mar. 06, 2015 Rise Set
Actual Time
Civil Twilight
Nautical Twilight
Astronomical Twilight
Moon
Length of Visible Light
Length of Day
Tomorrow will be .
, % of the Moon is Illuminated

Today's Extremes

State Highs State Lows

Community

WunderPhotos

Upload Photos

1,803,211 photos uploaded!

WunderBlogs® & News

Nearby

Air Quality

  Air Quality AQ Index Pollutant
Not available.

Snow Depth

Station Depth Elevation

Earthquake Activity

City Distance Mag. Time & Date
Minimum magnitude displayed is 2.5.

Coastal Water Temperatures

Place Temperature

Nearby Weather Stations